Ana Sayfa
METAR-TAF:

METAR-TAF

Havaalanları :

Kahramanmaraş, Türkiye

Kahramanmaraş Havalimanı

Enlem: 37-32-20N, Boylam: 036-57-12E, yükseklik: 525 m

Güncel hava durumu gözlemi

Rapor saat 13:50 UTC de 47 dakika önce yapıldı.
Rüzgar doğudan 10 kt
Sıcaklık 15°C
Nem 51%
Basınç 1009 hPa
Görüş mesafesi 10 km veya daha fazla
4000 ft yükseklikte parçalı bulutlu

METAR: LTCN 231350Z 10010KT 9999 SCT040 15/05 Q1009 NOSIG

Saat: 17:37 (14:37 UTC)

Tahmin

Rapor saat 13:40 UTC de 57 dakika önce yapıldı.
Ayın 23'si saat 15 UTC'den ayın 23'si saat 24 UTC'ye kadar geçerli Tahmin
Rüzgar değişken yönden 2 kt
Görüş mesafesi 10 km veya daha fazla
4000 ft yükseklikte parçalı bulutlu

TAF: LTCN 231340Z 2315/2324 VRB02KT 9999 SCT040

4.000'den fazla havaalanı için hava durumu gözlemleri ve tahminleri (METAR ve TAF raporları).

Kullanılabilir istasyonlar harita üzerinde sarı ve kırmızı noktalarla gösterilir.

İstasyonun adını görmek için fareyi noktanın üzerinde gezdirin.

Sonrasında hava gözlem ve tahminlerini görmek için tıklayın.

Haritayı değiştirmek için: yaklaştırmak için siyah artı işaretli yeşil düğmeye ve uzaklaştırmak için de eksi işaretli düğmeye hızla tıklayın; bitişik haritalar için yeşil okları kullanın.


METAR-TAF: